Time;durP1;ratioP1;P1;durP2;ratioP2;P2;SDS_P1;SDS_P2;PMS_P1;PMS_P2;Temp;Humidity;BMP_temperature;BMP_pressure;BME280_temperature;BME280_humidity;BME280_pressure;Samples;Min_cycle;Max_cycle;Signal;HPM_P1;HPM_P2
2023/10/08 00:01:16;;;;;;;7.55;3.92;;;23.80;63.80;;;;;;4998360;28;86662;-84
2023/10/08 00:03:53;;;;;;;5.95;3.22;;;23.80;63.80;;;;;;5017199;28;86360;-86
2023/10/08 00:06:21;;;;;;;8.82;3.85;;;23.80;63.80;;;;;;5001452;28;86702;-90
2023/10/08 00:08:47;;;;;;;7.70;3.92;;;23.70;63.70;;;;;;5015556;28;88008;-83
2023/10/08 00:11:15;;;;;;;6.68;3.60;;;23.70;63.80;;;;;;5015335;28;86670;-84
2023/10/08 00:13:41;;;;;;;7.40;3.92;;;23.70;63.70;;;;;;4997761;28;86489;-85
2023/10/08 00:16:15;;;;;;;6.88;3.47;;;23.70;63.60;;;;;;4999435;28;87445;-83
2023/10/08 00:18:48;;;;;;;8.23;3.60;;;23.70;63.70;;;;;;5016835;28;86060;-88
2023/10/08 00:21:26;;;;;;;7.70;3.70;;;23.70;63.80;;;;;;5033374;28;86098;-83
2023/10/08 00:23:52;;;;;;;8.68;4.00;;;23.70;63.70;;;;;;5032174;28;87769;-85
2023/10/08 00:26:29;;;;;;;7.82;4.10;;;23.70;63.80;;;;;;4980597;28;88410;-83
2023/10/08 00:29:06;;;;;;;8.05;3.80;;;23.70;63.50;;;;;;4978769;28;87319;-87
2023/10/08 00:31:40;;;;;;;5.68;3.65;;;23.70;63.70;;;;;;4998412;28;86585;-84
2023/10/08 00:34:12;;;;;;;8.35;3.75;;;23.70;63.70;;;;;;4998405;28;86292;-83
2023/10/08 00:36:42;;;;;;;7.57;3.65;;;23.70;63.80;;;;;;4979132;28;89905;-86
2023/10/08 00:39:14;;;;;;;5.35;3.78;;;23.70;63.80;;;;;;4979627;28;86181;-82
2023/10/08 00:41:45;;;;;;;6.22;3.25;;;23.70;63.70;;;;;;5017558;28;86112;-83
2023/10/08 00:44:30;;;;;;;5.40;3.15;;;23.60;63.80;;;;;;5016808;28;87214;-87
2023/10/08 00:46:57;;;;;;;8.70;3.70;;;23.60;63.80;;;;;;5000532;28;88800;-82
2023/10/08 00:49:25;;;;;;;5.25;3.33;;;23.60;63.90;;;;;;5018049;28;86914;-83
2023/10/08 00:54:32;;;;;;;6.72;3.90;;;23.60;63.70;;;;;;5018233;27;85997;-85
2023/10/08 00:56:59;;;;;;;6.93;3.67;;;23.60;63.90;;;;;;4999878;28;87467;-88
2023/10/08 00:59:25;;;;;;;7.03;3.25;;;23.60;64.00;;;;;;5016631;27;87199;-83
2023/10/08 01:01:53;;;;;;;6.30;3.28;;;23.60;63.80;;;;;;5033487;27;86182;-82
2023/10/08 01:04:27;;;;;;;4.82;3.15;;;23.60;63.90;;;;;;5017582;28;86398;-89
2023/10/08 01:06:58;;;;;;;7.25;3.50;;;23.50;63.80;;;;;;5017994;28;89927;-84
2023/10/08 01:09:37;;;;;;;6.32;3.63;;;23.50;63.90;;;;;;5017240;27;86405;-84
2023/10/08 01:12:19;;;;;;;7.53;3.77;;;23.50;64.00;;;;;;5034367;28;86358;-84
2023/10/08 01:14:53;;;;;;;5.32;3.13;;;23.50;63.80;;;;;;5000371;28;87591;-82
2023/10/08 01:17:26;;;;;;;5.80;3.28;;;23.50;63.70;;;;;;5033501;27;86505;-87
2023/10/08 01:20:32;;;;;;;8.10;3.35;;;23.50;63.80;;;;;;5015268;27;90136;-83
2023/10/08 01:22:57;;;;;;;4.20;3.08;;;23.50;64.00;;;;;;5017683;27;85849;-83
2023/10/08 01:25:24;;;;;;;5.22;2.97;;;23.50;64.20;;;;;;4999453;28;86354;-82
2023/10/08 01:27:55;;;;;;;7.22;3.45;;;23.50;64.00;;;;;;5017660;27;87228;-86
2023/10/08 01:30:21;;;;;;;4.60;3.30;;;23.50;64.00;;;;;;4991726;28;89355;-85
2023/10/08 01:32:47;;;;;;;5.88;3.30;;;23.50;63.70;;;;;;4999162;28;86262;-83
2023/10/08 01:35:26;;;;;;;5.28;3.15;;;23.40;63.60;;;;;;4980540;28;86320;-85
2023/10/08 01:37:53;;;;;;;7.30;3.10;;;23.40;63.80;;;;;;4996418;28;87185;-85
2023/10/08 01:40:19;;;;;;;6.97;2.97;;;23.40;63.60;;;;;;4994480;28;88628;-88
2023/10/08 01:42:45;;;;;;;9.23;3.70;;;23.40;63.70;;;;;;4977207;28;91941;-85
2023/10/08 01:45:19;;;;;;;4.18;2.90;;;23.40;64.40;;;;;;4996172;28;87310;-90
2023/10/08 01:47:51;;;;;;;4.50;2.90;;;23.40;63.90;;;;;;4995054;28;90553;-83
2023/10/08 01:50:22;;;;;;;5.25;3.38;;;23.40;63.80;;;;;;4994424;28;89761;-83
2023/10/08 01:52:51;;;;;;;4.78;2.70;;;23.40;63.80;;;;;;4995625;28;89693;-83
2023/10/08 01:55:19;;;;;;;5.50;3.20;;;23.40;63.80;;;;;;4976832;28;88294;-84
2023/10/08 01:57:45;;;;;;;5.55;3.47;;;23.40;63.90;;;;;;4980879;28;89034;-83
2023/10/08 02:00:13;;;;;;;6.00;3.10;;;23.40;63.80;;;;;;5031544;28;88896;-82
2023/10/08 02:02:40;;;;;;;6.13;3.13;;;23.40;63.70;;;;;;5030356;27;89555;-86
2023/10/08 02:05:06;;;;;;;5.13;3.03;;;23.40;63.60;;;;;;5016036;28;87086;-83
2023/10/08 02:07:35;;;;;;;5.85;3.22;;;23.40;63.70;;;;;;5030849;27;89423;-86
2023/10/08 02:10:00;;;;;;;3.92;2.80;;;23.40;63.80;;;;;;5030637;27;91538;-83
2023/10/08 02:12:26;;;;;;;6.60;3.45;;;23.30;63.60;;;;;;5014138;27;88575;-83
2023/10/08 02:14:51;;;;;;;3.85;2.83;;;23.30;63.60;;;;;;4994745;28;88190;-84
2023/10/08 02:17:17;;;;;;;5.85;3.15;;;23.30;63.50;;;;;;4976955;28;88637;-85
2023/10/08 02:19:49;;;;;;;5.32;3.17;;;23.30;63.70;;;;;;4995680;28;90587;-83
2023/10/08 02:22:14;;;;;;;4.53;2.92;;;23.30;63.60;;;;;;4984753;28;88665;-84
2023/10/08 02:24:40;;;;;;;3.78;2.60;;;23.30;63.80;;;;;;4997186;28;87403;-84
2023/10/08 02:27:06;;;;;;;5.85;3.42;;;23.30;63.50;;;;;;5015884;28;87194;-86
2023/10/08 02:29:32;;;;;;;4.53;3.10;;;23.30;63.50;;;;;;5014455;28;87848;-83
2023/10/08 02:31:58;;;;;;;3.67;2.55;;;23.30;63.60;;;;;;4985042;28;89860;-83
2023/10/08 02:34:24;;;;;;;6.38;2.92;;;23.30;63.70;;;;;;4994803;28;87304;-84
2023/10/08 02:36:50;;;;;;;5.15;3.25;;;23.30;63.60;;;;;;4996005;28;89073;-83
2023/10/08 02:39:21;;;;;;;5.13;3.00;;;23.30;63.80;;;;;;4994867;28;88568;-83
2023/10/08 02:41:49;;;;;;;3.70;2.83;;;23.30;63.80;;;;;;4994986;28;93011;-82
2023/10/08 02:44:16;;;;;;;4.75;2.97;;;23.30;63.50;;;;;;5010473;28;87440;-84
2023/10/08 02:47:03;;;;;;;7.05;3.00;;;23.20;63.70;;;;;;4997312;28;88619;-88
2023/10/08 02:49:31;;;;;;;6.55;3.08;;;23.20;63.90;;;;;;4995961;28;90676;-91
2023/10/08 02:51:58;;;;;;;4.10;2.58;;;23.20;63.70;;;;;;5013868;27;89555;-83
2023/10/08 02:54:31;;;;;;;4.47;2.67;;;23.20;63.60;;;;;;4996853;28;87433;-83
2023/10/08 02:56:59;;;;;;;6.68;2.70;;;23.20;63.60;;;;;;4996159;28;87281;-83
2023/10/08 02:59:38;;;;;;;4.82;2.72;;;23.20;63.80;;;;;;5012865;28;89273;-85
2023/10/08 03:02:12;;;;;;;5.38;3.35;;;23.20;63.70;;;;;;5012461;27;87735;-86
2023/10/08 03:04:45;;;;;;;5.72;3.15;;;23.20;64.60;;;;;;4984354;28;88483;-83
2023/10/08 03:07:33;;;;;;;6.13;3.33;;;23.20;63.80;;;;;;4975600;28;88059;-83
2023/10/08 03:10:06;;;;;;;5.05;2.90;;;23.20;64.00;;;;;;4976036;28;92348;-84
2023/10/08 03:12:36;;;;;;;3.90;2.88;;;23.20;64.00;;;;;;4977825;28;88834;-88
2023/10/08 03:17:37;;;;;;;5.38;3.20;;;23.20;63.90;;;;;;4994467;27;87267;-84
2023/10/08 03:23:12;;;;;;;6.20;2.80;;;23.20;63.90;;;;;;4934829;28;87084;-83
2023/10/08 03:25:41;;;;;;;5.13;2.97;;;23.20;63.70;;;;;;4940038;28;87359;-84
2023/10/08 03:28:12;;;;;;;4.00;2.40;;;23.20;63.70;;;;;;4976166;28;87385;-83
2023/10/08 03:30:50;;;;;;;4.57;2.80;;;23.20;63.70;;;;;;4993987;28;91097;-83
2023/10/08 03:33:23;;;;;;;4.32;2.50;;;23.20;63.80;;;;;;5013031;28;87457;-83
2023/10/08 03:35:54;;;;;;;4.85;2.53;;;23.20;63.80;;;;;;4993157;28;87108;-82
2023/10/08 03:38:44;;;;;;;4.75;2.85;;;23.10;63.80;;;;;;4994072;28;90483;-84
2023/10/08 03:41:09;;;;;;;3.42;2.47;;;23.20;64.00;;;;;;5012017;28;89287;-85
2023/10/08 03:43:42;;;;;;;6.40;3.08;;;23.10;63.70;;;;;;4993914;28;89738;-83
2023/10/08 03:46:14;;;;;;;3.88;2.60;;;23.10;63.70;;;;;;4995885;28;87630;-87
2023/10/08 03:48:44;;;;;;;4.15;2.50;;;23.10;63.70;;;;;;4999212;28;88722;-84
2023/10/08 03:51:19;;;;;;;4.25;2.90;;;23.10;63.80;;;;;;5014735;28;91942;-84
2023/10/08 03:53:58;;;;;;;4.45;2.80;;;23.10;63.80;;;;;;4998413;28;94426;-83
2023/10/08 03:56:31;;;;;;;4.43;2.50;;;23.10;63.80;;;;;;5014375;28;88182;-83
2023/10/08 03:59:00;;;;;;;4.15;2.58;;;23.10;63.70;;;;;;5011737;27;89020;-82
2023/10/08 04:01:30;;;;;;;3.75;2.55;;;23.10;63.80;;;;;;5012706;28;88903;-83
2023/10/08 04:04:00;;;;;;;5.10;3.13;;;23.10;63.90;;;;;;4980541;28;90217;-82
2023/10/08 04:06:30;;;;;;;3.97;2.67;;;23.10;63.80;;;;;;4995421;28;86959;-83
2023/10/08 04:11:49;;;;;;;7.18;3.30;;;23.10;63.90;;;;;;4994623;28;87849;-82
2023/10/08 04:14:18;;;;;;;3.97;2.72;;;23.00;63.80;;;;;;4996928;28;87117;-88
2023/10/08 04:16:45;;;;;;;4.10;2.35;;;23.10;63.90;;;;;;5011618;28;87651;-85
2023/10/08 04:19:12;;;;;;;4.70;2.78;;;23.10;64.00;;;;;;4976613;28;88779;-83
2023/10/08 04:21:42;;;;;;;3.25;2.42;;;23.00;63.90;;;;;;5027928;28;91700;-83
2023/10/08 04:24:08;;;;;;;2.95;2.50;;;23.00;63.80;;;;;;4978456;28;90747;-83
2023/10/08 04:26:40;;;;;;;4.18;3.03;;;23.00;63.80;;;;;;4996529;28;87429;-84
2023/10/08 04:29:08;;;;;;;4.45;2.92;;;23.00;63.90;;;;;;5010591;28;87907;-87
2023/10/08 04:31:37;;;;;;;3.70;2.78;;;23.00;63.90;;;;;;4997288;28;89834;-85
2023/10/08 04:34:15;;;;;;;4.00;2.72;;;23.00;63.80;;;;;;4997482;28;89860;-84
2023/10/08 04:37:00;;;;;;;3.65;2.22;;;23.00;64.00;;;;;;4992409;28;87167;-84
2023/10/08 04:39:33;;;;;;;7.18;2.83;;;23.00;63.80;;;;;;4996093;28;88128;-82
2023/10/08 04:42:13;;;;;;;3.92;2.30;;;23.00;63.70;;;;;;4978903;28;92143;-83
2023/10/08 04:44:39;;;;;;;3.47;2.50;;;23.00;63.80;;;;;;5015897;28;88284;-84
2023/10/08 04:47:06;;;;;;;3.60;2.90;;;23.00;63.90;;;;;;5014817;28;88479;-82
2023/10/08 04:49:34;;;;;;;4.15;2.60;;;23.00;63.80;;;;;;4997497;28;88826;-82
2023/10/08 04:52:14;;;;;;;4.18;2.70;;;23.00;63.60;;;;;;5015548;28;89167;-83
2023/10/08 04:54:46;;;;;;;2.83;2.45;;;23.00;63.70;;;;;;4996372;28;89435;-83
2023/10/08 04:57:15;;;;;;;4.32;2.70;;;23.00;63.80;;;;;;4998341;28;87534;-87
2023/10/08 04:59:42;;;;;;;4.90;2.77;;;23.00;63.80;;;;;;5006028;27;88496;-85
2023/10/08 05:15:36;;;;;;;;;;;23.00;63.80;;;;;;4996096;28;87845;-84
2023/10/08 05:28:35;;;;;;;3.78;2.45;;;23.00;63.80;;;;;;5015861;28;87666;-86
2023/10/08 05:31:36;;;;;;;2.58;2.30;;;22.90;63.80;;;;;;4997408;28;88918;-86
2023/10/08 05:34:16;;;;;;;3.35;2.30;;;23.00;63.70;;;;;;4988626;28;88897;-83
2023/10/08 05:39:40;;;;;;;2.75;2.05;;;23.00;63.90;;;;;;5013934;28;89239;-83
2023/10/08 05:42:13;;;;;;;3.75;2.65;;;22.90;63.70;;;;;;4996688;28;87444;-84
2023/10/08 05:44:45;;;;;;;4.03;2.65;;;22.90;63.80;;;;;;5014552;28;89138;-83
2023/10/08 05:47:38;;;;;;;4.55;2.65;;;22.90;63.90;;;;;;4995586;28;91188;-84
2023/10/08 05:55:25;;;;;;;3.10;2.40;;;22.90;63.90;;;;;;5015144;28;88294;-84
2023/10/08 06:03:37;;;;;;;25.75;6.35;;;22.90;64.20;;;;;;5016175;28;87935;-87
2023/10/08 06:08:51;;;;;;;27.35;5.80;;;22.90;63.50;;;;;;5008801;28;88752;-82
2023/10/08 06:12:29;;;;;;;23.92;6.18;;;22.90;63.90;;;;;;4989034;28;87460;-82
2023/10/08 06:17:13;;;;;;;24.75;6.30;;;22.90;63.90;;;;;;5014820;28;87515;-84
2023/10/08 06:19:43;;;;;;;21.98;6.15;;;22.90;63.90;;;;;;4988850;28;88662;-82
2023/10/08 06:22:08;;;;;;;;;;;22.90;63.90;;;;;;5009094;28;87447;-82
2023/10/08 06:24:38;;;;;;;26.13;7.10;;;22.90;63.90;;;;;;5002663;27;89496;-87
2023/10/08 06:27:04;;;;;;;25.75;7.72;;;23.00;64.00;;;;;;5006525;28;89932;-86
2023/10/08 06:29:32;;;;;;;29.92;7.65;;;23.00;63.50;;;;;;4974496;28;87873;-87
2023/10/08 06:32:02;;;;;;;27.73;7.80;;;23.00;63.30;;;;;;5008130;28;88476;-83
2023/10/08 06:34:29;;;;;;;23.20;7.40;;;23.00;63.50;;;;;;4992487;28;90640;-85
2023/10/08 06:36:57;;;;;;;25.85;7.07;;;23.00;63.40;;;;;;4995252;28;89473;-85
2023/10/08 06:39:47;;;;;;;22.02;7.32;;;23.00;63.50;;;;;;4992524;28;89901;-84
2023/10/08 06:42:17;;;;;;;28.17;7.57;;;23.00;63.30;;;;;;4980923;28;87472;-84
2023/10/08 06:44:46;;;;;;;20.58;8.43;;;23.10;63.50;;;;;;5006965;28;93208;-84
2023/10/08 06:47:15;;;;;;;29.02;8.15;;;23.10;63.30;;;;;;5009568;28;87815;-82
2023/10/08 06:49:43;;;;;;;27.55;8.50;;;23.10;63.00;;;;;;4989663;28;89994;-86
2023/10/08 06:52:11;;;;;;;25.77;8.73;;;23.10;63.30;;;;;;4988686;28;87818;-82
2023/10/08 06:54:37;;;;;;;19.15;6.60;;;23.20;63.10;;;;;;5024154;28;91175;-86
2023/10/08 06:57:03;;;;;;;24.70;7.43;;;23.20;62.80;;;;;;5026724;27;92186;-89
2023/10/08 06:59:31;;;;;;;19.98;7.70;;;23.20;62.00;;;;;;4993121;28;90758;-84
2023/10/08 07:01:58;;;;;;;19.58;6.40;;;23.20;61.40;;;;;;4991973;28;89013;-86
2023/10/08 07:04:24;;;;;;;15.05;6.68;;;23.20;60.90;;;;;;4991018;28;88643;-86
2023/10/08 07:06:54;;;;;;;18.73;6.97;;;23.20;60.60;;;;;;5011609;28;88042;-87
2023/10/08 07:11:56;;;;;;;29.58;7.03;;;23.20;59.60;;;;;;5010355;28;87556;-82
2023/10/08 07:14:27;;;;;;;25.92;8.50;;;23.20;59.30;;;;;;4989341;28;90204;-84
2023/10/08 07:17:08;;;;;;;25.15;8.65;;;23.30;59.20;;;;;;4987088;28;91400;-84
2023/10/08 07:19:47;;;;;;;23.38;8.18;;;23.30;59.30;;;;;;4989758;28;90065;-81
2023/10/08 07:22:22;;;;;;;29.40;9.57;;;23.30;59.10;;;;;;5012812;28;88535;-85
2023/10/08 07:24:51;;;;;;;23.05;7.60;;;23.30;59.40;;;;;;4992864;28;88166;-83
2023/10/08 07:27:21;;;;;;;23.33;7.40;;;23.30;59.20;;;;;;4990745;28;89261;-85
2023/10/08 07:29:48;;;;;;;19.23;7.32;;;23.30;59.10;;;;;;4991153;28;89530;-84
2023/10/08 07:32:18;;;;;;;26.02;8.68;;;23.30;59.00;;;;;;4994290;28;87500;-86
2023/10/08 07:34:44;;;;;;;125.82;31.98;;;23.30;59.10;;;;;;5029506;27;87750;-82
2023/10/08 07:37:11;;;;;;;102.43;26.73;;;23.30;58.90;;;;;;5014111;28;87752;-84
2023/10/08 07:39:46;;;;;;;91.18;24.15;;;23.30;59.70;;;;;;4989097;28;90246;-84
2023/10/08 07:42:12;;;;;;;79.88;22.65;;;23.30;59.80;;;;;;4972821;28;87562;-83
2023/10/08 07:44:41;;;;;;;77.55;20.77;;;23.30;60.10;;;;;;4980683;28;89947;-88
2023/10/08 07:47:11;;;;;;;70.93;21.92;;;23.40;60.10;;;;;;4987556;28;92033;-87
2023/10/08 07:49:38;;;;;;;69.35;19.58;;;23.40;59.70;;;;;;4994029;28;92986;-93
2023/10/08 07:52:04;;;;;;;69.68;17.60;;;23.40;60.30;;;;;;4984588;28;87664;-90
2023/10/08 07:54:34;;;;;;;68.18;18.00;;;23.40;59.80;;;;;;4977973;28;87123;-90
2023/10/08 07:57:09;;;;;;;64.38;17.67;;;23.40;59.80;;;;;;5009889;28;89231;-89
2023/10/08 07:59:48;;;;;;;57.17;17.42;;;23.40;59.70;;;;;;4985353;28;89292;-88
2023/10/08 08:02:16;;;;;;;;;;;23.50;59.60;;;;;;5009458;27;87349;-90
2023/10/08 08:04:45;;;;;;;70.32;17.67;;;23.40;59.80;;;;;;4985301;28;88579;-90
2023/10/08 08:07:20;;;;;;;57.38;15.60;;;23.50;59.90;;;;;;4979663;28;89765;-89
2023/10/08 08:10:10;;;;;;;54.00;15.27;;;23.50;60.60;;;;;;5018059;28;86968;-93
2023/10/08 08:12:37;;;;;;;42.08;13.65;;;23.50;60.50;;;;;;4976982;28;88104;-89
2023/10/08 08:15:14;;;;;;;50.05;13.70;;;23.60;59.80;;;;;;4987306;28;88617;-90
2023/10/08 08:18:05;;;;;;;48.10;13.50;;;23.60;60.10;;;;;;5007055;28;87979;-91
2023/10/08 08:20:43;;;;;;;52.60;14.82;;;23.60;60.50;;;;;;5013471;28;88329;-90
2023/10/08 08:23:11;;;;;;;54.40;14.38;;;23.60;60.50;;;;;;5002901;28;87437;-90
2023/10/08 08:28:28;;;;;;;47.72;13.13;;;23.70;60.90;;;;;;5014196;28;88246;-90
2023/10/08 08:30:55;;;;;;;42.10;12.07;;;23.70;60.90;;;;;;4994788;28;88116;-85
2023/10/08 08:33:24;;;;;;;47.38;13.80;;;23.80;60.90;;;;;;5010086;28;87664;-87
2023/10/08 08:36:01;;;;;;;36.05;12.48;;;23.80;61.20;;;;;;4990513;28;90676;-83
2023/10/08 08:38:32;;;;;;;39.05;12.80;;;23.80;61.20;;;;;;5008942;28;90219;-85
2023/10/08 08:41:06;;;;;;;35.30;11.98;;;23.80;60.90;;;;;;4972288;28;90491;-84
2023/10/08 08:43:34;;;;;;;32.08;10.60;;;23.80;60.80;;;;;;5009227;28;89283;-86
2023/10/08 08:46:06;;;;;;;29.03;11.57;;;23.90;60.60;;;;;;4993927;28;87784;-86
2023/10/08 08:48:34;;;;;;;27.25;10.32;;;23.90;60.90;;;;;;5000982;28;88582;-84
2023/10/08 08:51:00;;;;;;;30.90;9.70;;;24.00;60.50;;;;;;5027497;28;91018;-87
2023/10/08 08:53:26;;;;;;;35.53;11.30;;;23.90;60.60;;;;;;4994606;28;87701;-88
2023/10/08 08:55:54;;;;;;;31.55;10.85;;;24.00;61.10;;;;;;5014713;28;93893;-88
2023/10/08 08:58:22;;;;;;;24.33;9.97;;;24.00;61.00;;;;;;4973972;28;89580;-89
2023/10/08 09:00:50;;;;;;;28.67;9.70;;;24.00;61.00;;;;;;5009182;28;90559;-88
2023/10/08 09:03:16;;;;;;;27.05;9.85;;;24.00;61.50;;;;;;4978127;28;88323;-87
2023/10/08 09:05:49;;;;;;;27.95;9.02;;;24.00;61.40;;;;;;5030202;28;88836;-85
2023/10/08 09:08:18;;;;;;;26.15;8.52;;;24.10;61.20;;;;;;4993264;28;89674;-86
2023/10/08 09:10:56;;;;;;;37.17;8.75;;;24.00;60.60;;;;;;5008558;28;88337;-89
2023/10/08 09:13:22;;;;;;;32.88;9.15;;;24.00;60.60;;;;;;4996670;28;88117;-87
2023/10/08 09:15:49;;;;;;;33.92;10.52;;;24.10;61.20;;;;;;4994690;28;88008;-91
2023/10/08 09:18:15;;;;;;;25.73;8.68;;;24.10;61.10;;;;;;5008676;28;88573;-88
2023/10/08 09:20:44;;;;;;;35.88;9.75;;;24.10;61.10;;;;;;5016059;28;90895;-87
2023/10/08 09:23:14;;;;;;;23.92;7.72;;;24.10;61.10;;;;;;4995230;28;87389;-85
2023/10/08 09:25:44;;;;;;;27.38;7.45;;;24.10;60.90;;;;;;5012585;28;89461;-85
2023/10/08 09:28:14;;;;;;;22.60;8.63;;;24.10;60.60;;;;;;4996208;28;89756;-83
2023/10/08 09:30:40;;;;;;;;;;;24.00;60.80;;;;;;5011062;28;89530;-85
2023/10/08 09:33:07;;;;;;;18.85;7.28;;;24.00;61.00;;;;;;4993598;28;87527;-86
2023/10/08 09:35:36;;;;;;;25.88;7.63;;;24.00;60.80;;;;;;5011646;28;87390;-86
2023/10/08 09:38:09;;;;;;;24.27;8.05;;;24.10;60.30;;;;;;4994200;28;91879;-84
2023/10/08 09:40:46;;;;;;;22.65;8.43;;;24.00;60.40;;;;;;5002553;28;89865;-86
2023/10/08 09:43:12;;;;;;;19.73;6.85;;;24.10;60.10;;;;;;4992673;28;90104;-85
2023/10/08 09:45:46;;;;;;;22.48;7.60;;;24.00;60.60;;;;;;4991651;28;88981;-86
2023/10/08 09:48:15;;;;;;;26.95;8.63;;;24.00;60.50;;;;;;5003196;28;91099;-84
2023/10/08 09:50:42;;;;;;;22.13;7.43;;;24.00;60.90;;;;;;4990300;28;89559;-88
2023/10/08 09:53:19;;;;;;;22.77;7.22;;;24.00;61.20;;;;;;4972372;28;88765;-85
2023/10/08 09:55:56;;;;;;;24.25;7.30;;;24.00;61.70;;;;;;4983701;28;91188;-86
2023/10/08 09:58:29;;;;;;;21.50;8.48;;;24.00;61.80;;;;;;4997050;28;92099;-87
2023/10/08 10:00:57;;;;;;;18.77;7.78;;;24.00;61.70;;;;;;4977323;28;88581;-86
2023/10/08 10:03:47;;;;;;;23.77;8.35;;;24.00;62.10;;;;;;5018012;28;86785;-87
2023/10/08 10:06:15;;;;;;;23.20;7.85;;;24.00;62.40;;;;;;4979729;28;90808;-87
2023/10/08 10:08:42;;;;;;;17.15;7.78;;;24.00;62.60;;;;;;4977972;28;89917;-86
2023/10/08 10:11:08;;;;;;;18.48;6.95;;;24.00;62.90;;;;;;5010016;28;88472;-87
2023/10/08 10:13:40;;;;;;;17.08;7.97;;;23.90;63.00;;;;;;4995979;28;87830;-91
2023/10/08 10:16:09;;;;;;;15.60;6.60;;;23.90;63.30;;;;;;4995041;28;87592;-86
2023/10/08 10:18:35;;;;;;;15.33;6.43;;;23.90;61.50;;;;;;4993077;28;91011;-85
2023/10/08 10:21:20;;;;;;;11.63;5.25;;;24.00;60.70;;;;;;4994620;28;91471;-85
2023/10/08 10:23:50;;;;;;;19.70;5.65;;;24.00;59.90;;;;;;5010370;28;87300;-86
2023/10/08 10:26:33;;;;;;;12.40;5.78;;;24.00;59.50;;;;;;4982922;28;89234;-86
2023/10/08 10:29:11;;;;;;;15.00;5.38;;;24.00;60.10;;;;;;4984804;28;90155;-87
2023/10/08 10:31:46;;;;;;;11.27;5.45;;;24.00;59.90;;;;;;5013572;28;88714;-86
2023/10/08 10:34:16;;;;;;;13.93;5.63;;;23.90;59.80;;;;;;4968852;28;88313;-88
2023/10/08 10:36:42;;;;;;;12.45;5.78;;;23.90;59.60;;;;;;4973280;28;91002;-88
2023/10/08 10:39:26;;;;;;;13.40;5.68;;;23.90;59.70;;;;;;4992999;28;90957;-86
2023/10/08 10:41:57;;;;;;;15.90;5.68;;;23.90;60.00;;;;;;4996788;28;92817;-85
2023/10/08 10:44:25;;;;;;;15.57;5.68;;;23.90;60.00;;;;;;4977958;28;88552;-87
2023/10/08 10:46:52;;;;;;;15.20;6.18;;;23.90;59.80;;;;;;4991358;28;87634;-86
2023/10/08 10:49:21;;;;;;;17.63;6.30;;;23.90;59.60;;;;;;4992339;28;90827;-85
2023/10/08 10:51:52;;;;;;;10.30;5.10;;;23.90;59.80;;;;;;5004012;28;88530;-87
2023/10/08 10:54:23;;;;;;;10.40;5.35;;;23.90;59.80;;;;;;4974971;28;87778;-83
2023/10/08 10:57:06;;;;;;;15.57;6.45;;;23.90;60.10;;;;;;4996668;28;89205;-85
2023/10/08 10:59:39;;;;;;;12.90;5.30;;;23.90;59.90;;;;;;5028513;27;87953;-85
2023/10/08 11:02:08;;;;;;;13.95;5.47;;;23.80;60.10;;;;;;5011816;28;86408;-84
2023/10/08 11:04:47;;;;;;;13.00;5.70;;;23.80;59.90;;;;;;5009701;27;88096;-85
2023/10/08 11:07:20;;;;;;;;;;;23.80;59.90;;;;;;5012652;27;88361;-86
2023/10/08 11:10:09;;;;;;;17.60;5.95;;;23.80;60.40;;;;;;5027201;27;92436;-82
2023/10/08 11:12:46;;;;;;;15.02;6.38;;;23.80;60.40;;;;;;5009166;27;87823;-84
2023/10/08 11:15:15;;;;;;;12.70;6.07;;;23.90;61.40;;;;;;5009680;28;87755;-83
2023/10/08 11:17:41;;;;;;;16.42;6.10;;;23.90;67.50;;;;;;5006912;28;87622;-83
2023/10/08 11:20:27;;;;;;;13.32;5.43;;;23.90;69.10;;;;;;4991481;28;91595;-84
2023/10/08 11:22:53;;;;;;;16.90;5.13;;;23.90;66.60;;;;;;4994158;28;89572;-86
2023/10/08 11:25:30;;;;;;;12.95;5.20;;;23.90;67.70;;;;;;5009635;27;87846;-85
2023/10/08 11:28:08;;;;;;;14.68;6.05;;;23.90;63.80;;;;;;5027598;27;87808;-88
2023/10/08 11:30:35;;;;;;;13.25;5.15;;;23.90;62.50;;;;;;5026826;27;89202;-85
2023/10/08 11:33:04;;;;;;;13.23;5.88;;;23.90;62.80;;;;;;5010526;28;88331;-84
2023/10/08 11:35:33;;;;;;;12.75;5.47;;;23.90;62.20;;;;;;5009975;27;88661;-82
2023/10/08 11:38:01;;;;;;;;;;;23.80;62.90;;;;;;5008652;28;87869;-83
2023/10/08 11:40:48;;;;;;;40.97;9.60;;;23.80;63.00;;;;;;5009790;27;88546;-83
2023/10/08 11:43:15;;;;;;;26.38;8.20;;;23.80;62.80;;;;;;5008023;28;87994;-83
2023/10/08 11:45:48;;;;;;;47.05;9.80;;;23.90;62.60;;;;;;5008056;27;87804;-86
2023/10/08 11:48:28;;;;;;;34.90;9.50;;;23.90;62.60;;;;;;4980613;28;89830;-83
2023/10/08 11:50:57;;;;;;;42.42;11.55;;;23.80;62.50;;;;;;4993251;28;92680;-82
2023/10/08 11:53:24;;;;;;;51.58;10.73;;;23.80;62.20;;;;;;4992618;28;91490;-84
2023/10/08 11:55:56;;;;;;;32.53;11.25;;;23.80;62.40;;;;;;5008486;27;87436;-86
2023/10/08 11:58:35;;;;;;;29.10;9.57;;;23.80;62.20;;;;;;4990471;28;88923;-82
2023/10/08 12:01:03;;;;;;;28.80;9.05;;;23.90;62.50;;;;;;4989563;28;92429;-84
2023/10/08 12:03:29;;;;;;;40.38;10.82;;;23.90;62.60;;;;;;5007129;27;90497;-83
2023/10/08 12:06:01;;;;;;;27.73;9.98;;;23.90;62.40;;;;;;5009157;28;88305;-86
2023/10/08 12:08:28;;;;;;;28.92;9.68;;;23.80;62.40;;;;;;5006602;27;88096;-82
2023/10/08 12:10:54;;;;;;;31.63;10.43;;;23.80;62.50;;;;;;5008850;27;89108;-84
2023/10/08 12:13:28;;;;;;;28.17;10.38;;;23.80;62.30;;;;;;4989385;28;90968;-86
2023/10/08 12:16:06;;;;;;;28.65;10.30;;;23.80;62.30;;;;;;4989488;28;87327;-83
2023/10/08 12:18:39;;;;;;;29.45;10.57;;;23.80;62.40;;;;;;5007054;27;87173;-82
2023/10/08 12:21:10;;;;;;;25.02;10.25;;;23.80;62.20;;;;;;5008931;28;89803;-82
2023/10/08 12:23:37;;;;;;;26.83;9.43;;;23.80;62.40;;;;;;4989743;28;90867;-84
2023/10/08 12:26:03;;;;;;;27.52;10.52;;;23.80;62.50;;;;;;4990411;28;88169;-82
2023/10/08 12:28:29;;;;;;;26.98;10.60;;;23.80;62.30;;;;;;5025051;27;88972;-83
2023/10/08 12:31:00;;;;;;;24.63;9.85;;;23.80;62.00;;;;;;5007508;28;90541;-82
2023/10/08 12:33:26;;;;;;;25.25;9.23;;;23.80;62.40;;;;;;4990288;28;90886;-84
2023/10/08 12:36:05;;;;;;;29.15;10.52;;;23.80;62.30;;;;;;5011061;28;87168;-85
2023/10/08 12:38:33;;;;;;;30.17;9.20;;;23.80;62.20;;;;;;4989410;28;88977;-85
2023/10/08 12:41:08;;;;;;;34.03;10.88;;;23.80;62.10;;;;;;5024557;27;89415;-83
2023/10/08 12:43:38;;;;;;;23.10;9.48;;;23.80;62.20;;;;;;5024099;27;89988;-81
2023/10/08 12:46:10;;;;;;;23.77;9.50;;;23.70;62.40;;;;;;5008989;27;87662;-82
2023/10/08 12:48:36;;;;;;;25.08;9.93;;;23.70;62.50;;;;;;4990668;28;87827;-85
2023/10/08 12:51:05;;;;;;;22.92;9.25;;;23.70;62.40;;;;;;5009084;28;88263;-82
2023/10/08 12:53:34;;;;;;;22.55;9.45;;;23.70;62.30;;;;;;5007377;27;89262;-82
2023/10/08 12:56:05;;;;;;;23.95;9.35;;;23.70;62.50;;;;;;5007868;27;87742;-87
2023/10/08 12:58:41;;;;;;;22.50;9.93;;;23.70;62.50;;;;;;5007984;28;88129;-82
2023/10/08 13:01:09;;;;;;;23.23;9.27;;;23.70;62.30;;;;;;4987241;28;91229;-82
2023/10/08 13:03:41;;;;;;;23.77;8.85;;;23.70;62.30;;;;;;4991532;27;91391;-86
2023/10/08 13:06:21;;;;;;;23.30;9.63;;;23.70;62.10;;;;;;5009830;28;87707;-86
2023/10/08 13:08:54;;;;;;;23.05;8.85;;;23.70;62.20;;;;;;4992410;28;92800;-82
2023/10/08 13:11:25;;;;;;;22.92;8.65;;;23.70;62.10;;;;;;5008590;28;88522;-82
2023/10/08 13:13:56;;;;;;;20.50;9.00;;;23.70;62.20;;;;;;4990843;28;91264;-84
2023/10/08 13:16:23;;;;;;;15.73;7.65;;;23.70;62.20;;;;;;5006684;27;88348;-85
2023/10/08 13:18:50;;;;;;;22.60;10.10;;;23.70;62.10;;;;;;4990951;28;89278;-84
2023/10/08 13:21:16;;;;;;;22.15;8.98;;;23.70;62.10;;;;;;5007988;28;88731;-86
2023/10/08 13:23:42;;;;;;;16.80;8.07;;;23.70;62.10;;;;;;5008018;28;88698;-84
2023/10/08 13:26:08;;;;;;;22.33;8.77;;;23.70;62.10;;;;;;5022722;28;87174;-85
2023/10/08 13:28:37;;;;;;;18.13;8.02;;;23.70;62.10;;;;;;5007185;28;88449;-85
2023/10/08 13:31:11;;;;;;;20.27;8.05;;;23.70;62.20;;;;;;4989072;28;88853;-83
2023/10/08 13:33:48;;;;;;;20.60;8.90;;;23.70;62.30;;;;;;4989901;28;89962;-84
2023/10/08 13:36:16;;;;;;;20.65;8.23;;;23.70;62.20;;;;;;4994493;28;87461;-90
2023/10/08 13:38:43;;;;;;;15.90;7.25;;;23.70;62.10;;;;;;5011224;28;90364;-83
2023/10/08 13:41:15;;;;;;;15.07;7.28;;;23.80;62.00;;;;;;5013776;28;88691;-84
2023/10/08 13:43:59;;;;;;;17.40;8.43;;;23.80;62.30;;;;;;5029243;28;91042;-85
2023/10/08 13:46:25;;;;;;;20.65;8.40;;;23.80;62.90;;;;;;5012329;28;87872;-82
2023/10/08 13:48:51;;;;;;;20.17;8.38;;;23.70;62.70;;;;;;5014610;28;87568;-87
2023/10/08 13:51:24;;;;;;;18.42;8.60;;;23.80;63.20;;;;;;5014367;28;88681;-83
2023/10/08 13:53:59;;;;;;;15.05;7.15;;;23.70;62.90;;;;;;4989454;28;92017;-90
2023/10/08 13:56:30;;;;;;;19.63;8.18;;;23.70;63.70;;;;;;4972018;28;87598;-83
2023/10/08 13:59:12;;;;;;;17.58;8.23;;;23.70;62.80;;;;;;5002659;28;87680;-84
2023/10/08 14:01:43;;;;;;;14.35;7.65;;;23.70;62.90;;;;;;4992902;28;87569;-84